createdAt,value
2023-02-23T00:01:27.646Z,23.80
2023-02-23T00:04:05.325Z,33.70
2023-02-23T00:06:44.475Z,31.00
2023-02-23T00:09:35.420Z,27.70
2023-02-23T00:12:24.107Z,31.60
2023-02-23T00:15:05.118Z,28.90
2023-02-23T00:17:47.891Z,35.00
2023-02-23T00:20:31.755Z,36.90
2023-02-23T00:23:08.982Z,32.70
2023-02-23T00:25:48.024Z,34.10
2023-02-23T00:28:25.225Z,27.60
2023-02-23T00:31:01.254Z,31.50
2023-02-23T00:33:42.553Z,32.90
2023-02-23T00:36:28.907Z,31.10
2023-02-23T00:39:17.516Z,38.00
2023-02-23T00:41:52.730Z,33.40
2023-02-23T00:44:35.204Z,33.60
2023-02-23T00:47:19.004Z,32.20
2023-02-23T00:49:58.070Z,33.70
2023-02-23T00:52:33.617Z,38.10
2023-02-23T00:55:09.185Z,38.40
2023-02-23T00:57:47.273Z,35.70
2023-02-23T01:00:21.517Z,37.50
2023-02-23T01:02:52.443Z,32.10
2023-02-23T01:07:55.758Z,39.50
2023-02-23T01:10:30.037Z,37.40
2023-02-23T01:13:04.882Z,31.80
2023-02-23T01:15:44.848Z,33.20
2023-02-23T01:18:24.478Z,35.90
2023-02-23T01:20:58.928Z,26.30
2023-02-23T01:23:30.528Z,32.70
2023-02-23T01:26:03.948Z,34.50
2023-02-23T01:28:40.810Z,34.70
2023-02-23T01:31:10.575Z,31.80
2023-02-23T01:33:41.740Z,30.00
2023-02-23T01:36:13.425Z,29.40
2023-02-23T01:38:47.511Z,34.80
2023-02-23T01:41:23.999Z,27.20
2023-02-23T01:44:06.551Z,32.40
2023-02-23T01:46:46.084Z,28.90
2023-02-23T01:49:27.001Z,29.70
2023-02-23T01:52:16.768Z,29.00
2023-02-23T01:54:56.998Z,32.50
2023-02-23T01:57:27.913Z,28.80
2023-02-23T01:59:56.946Z,35.10
2023-02-23T02:02:34.737Z,33.00
2023-02-23T02:05:13.478Z,29.30
2023-02-23T02:07:59.183Z,30.70
2023-02-23T02:10:48.266Z,36.50
2023-02-23T02:13:31.071Z,31.00
2023-02-23T02:16:31.434Z,29.10
2023-02-23T02:19:34.484Z,29.80
2023-02-23T02:22:15.622Z,30.90
2023-02-23T02:25:20.746Z,26.40
2023-02-23T02:28:45.166Z,27.60
2023-02-23T02:31:55.001Z,25.70
2023-02-23T02:35:16.415Z,36.50
2023-02-23T02:38:20.700Z,27.80
2023-02-23T02:41:27.094Z,23.20
2023-02-23T02:44:57.579Z,30.90
2023-02-23T02:47:48.343Z,33.20
2023-02-23T02:50:40.786Z,22.00
2023-02-23T02:53:20.900Z,23.70
2023-02-23T02:56:05.577Z,22.50
2023-02-23T02:58:53.665Z,21.00
2023-02-23T03:01:45.988Z,23.80
2023-02-23T03:04:50.312Z,17.10
2023-02-23T03:07:52.752Z,25.60
2023-02-23T03:11:01.197Z,24.80
2023-02-23T03:14:16.449Z,20.00
2023-02-23T03:17:39.722Z,19.70
2023-02-23T03:20:57.721Z,22.20
2023-02-23T03:24:37.605Z,25.50
2023-02-23T03:28:15.862Z,40.00
2023-02-23T03:31:22.453Z,25.00
2023-02-23T03:34:32.033Z,26.80
2023-02-23T03:38:05.048Z,28.00
2023-02-23T03:41:10.619Z,31.50
2023-02-23T03:44:19.928Z,36.70
2023-02-23T03:47:38.033Z,54.30
2023-02-23T03:51:02.479Z,45.80
2023-02-23T03:54:33.519Z,40.10
2023-02-23T03:57:44.216Z,35.10
2023-02-23T04:01:01.043Z,37.80
2023-02-23T04:04:12.892Z,37.10
2023-02-23T04:07:21.125Z,42.10
2023-02-23T04:10:23.087Z,35.60
2023-02-23T04:13:38.210Z,34.40
2023-02-23T04:16:23.542Z,35.80
2023-02-23T04:19:09.757Z,28.40
2023-02-23T04:21:45.675Z,21.80
2023-02-23T04:24:28.488Z,29.40
2023-02-23T04:27:11.266Z,29.90
2023-02-23T04:29:45.335Z,23.90
2023-02-23T04:32:22.794Z,24.30
2023-02-23T04:34:56.960Z,26.40
2023-02-23T04:37:28.883Z,20.20
2023-02-23T04:40:02.079Z,29.60
2023-02-23T04:42:33.971Z,25.90
2023-02-23T04:45:08.290Z,27.20
2023-02-23T04:47:36.541Z,25.60
2023-02-23T04:50:14.544Z,21.20
2023-02-23T04:52:52.082Z,22.20
2023-02-23T04:55:27.134Z,21.30
2023-02-23T04:58:04.623Z,23.50
2023-02-23T05:00:39.653Z,24.30
2023-02-23T05:03:17.658Z,30.50
2023-02-23T05:05:46.263Z,25.60
2023-02-23T05:08:17.305Z,30.80
2023-02-23T05:10:48.497Z,32.80
2023-02-23T05:13:26.892Z,36.00
2023-02-23T05:16:01.606Z,37.70
2023-02-23T05:18:35.125Z,29.90
2023-02-23T05:21:11.225Z,24.40
2023-02-23T05:23:45.369Z,26.00
2023-02-23T05:26:19.475Z,25.90
2023-02-23T05:28:52.899Z,25.00
2023-02-23T05:31:28.658Z,25.40
2023-02-23T05:34:07.962Z,27.50
2023-02-23T05:36:48.188Z,40.60
2023-02-23T05:39:18.994Z,35.10
2023-02-23T05:41:51.565Z,40.00
2023-02-23T05:44:20.302Z,48.00
2023-02-23T05:47:02.283Z,41.40
2023-02-23T05:49:39.666Z,37.80
2023-02-23T05:52:13.303Z,36.30
2023-02-23T05:54:49.813Z,39.20
2023-02-23T05:57:24.390Z,36.60
2023-02-23T05:59:57.931Z,39.30
2023-02-23T06:02:26.920Z,30.10
2023-02-23T06:05:10.432Z,29.70
2023-02-23T06:07:48.156Z,28.10
2023-02-23T06:10:27.354Z,27.40
2023-02-23T06:12:59.261Z,22.20
2023-02-23T06:15:42.225Z,23.20
2023-02-23T06:18:18.548Z,23.80
2023-02-23T06:21:01.388Z,22.70
2023-02-23T06:23:37.003Z,23.10
2023-02-23T06:26:11.588Z,37.20
2023-02-23T06:28:51.966Z,30.60
2023-02-23T06:31:25.452Z,32.30
2023-02-23T06:34:01.393Z,29.60
2023-02-23T06:36:41.903Z,29.50
2023-02-23T06:39:15.245Z,25.30
2023-02-23T06:41:51.717Z,26.40
2023-02-23T06:44:28.586Z,30.50
2023-02-23T06:47:07.015Z,25.00
2023-02-23T06:49:41.275Z,28.70
2023-02-23T06:52:13.747Z,25.60
2023-02-23T06:54:42.291Z,29.60
2023-02-23T06:57:16.752Z,42.50
2023-02-23T06:59:53.556Z,39.80
2023-02-23T07:02:35.410Z,42.30
2023-02-23T07:05:15.330Z,33.70
2023-02-23T07:07:52.423Z,30.90
2023-02-23T07:10:29.245Z,37.40
2023-02-23T07:13:01.289Z,34.20
2023-02-23T07:15:50.310Z,32.00
2023-02-23T07:18:27.229Z,38.90
2023-02-23T07:21:08.941Z,31.90
2023-02-23T07:23:52.238Z,27.20
2023-02-23T07:26:37.665Z,33.60
2023-02-23T07:29:22.498Z,27.10
2023-02-23T07:32:07.030Z,31.60
2023-02-23T07:34:46.656Z,37.60
2023-02-23T07:37:28.467Z,30.80
2023-02-23T07:40:15.789Z,28.80
2023-02-23T07:42:56.079Z,24.70
2023-02-23T07:45:37.277Z,27.50
2023-02-23T07:48:20.806Z,25.20
2023-02-23T07:51:04.927Z,31.60
2023-02-23T07:53:49.106Z,31.90
2023-02-23T07:56:43.848Z,23.20
2023-02-23T07:59:29.428Z,28.10
2023-02-23T08:02:16.986Z,34.30
2023-02-23T08:04:54.534Z,31.00
2023-02-23T08:07:27.926Z,27.30
2023-02-23T08:10:00.131Z,29.70
2023-02-23T08:12:31.498Z,23.60
2023-02-23T08:15:00.338Z,21.50
2023-02-23T08:17:34.479Z,24.00
2023-02-23T08:20:04.096Z,19.50
2023-02-23T08:22:48.449Z,17.00
2023-02-23T08:25:20.904Z,15.40
2023-02-23T08:27:54.993Z,17.70
2023-02-23T08:30:26.569Z,17.70
2023-02-23T08:32:55.430Z,16.10
2023-02-23T08:35:24.307Z,20.50
2023-02-23T08:37:58.288Z,20.70
2023-02-23T08:40:39.577Z,20.70
2023-02-23T08:43:29.684Z,16.00
2023-02-23T08:46:02.821Z,27.60
2023-02-23T08:48:39.301Z,19.10
2023-02-23T08:51:14.966Z,15.50
2023-02-23T08:53:49.949Z,25.10
2023-02-23T08:56:42.442Z,35.80
2023-02-23T08:59:19.592Z,28.20
2023-02-23T09:01:49.505Z,27.20
2023-02-23T09:04:26.780Z,19.70
2023-02-23T09:06:56.431Z,19.00
2023-02-23T09:09:27.247Z,21.00
2023-02-23T09:12:03.282Z,21.20
2023-02-23T09:14:37.094Z,11.30
2023-02-23T09:17:13.981Z,17.60
2023-02-23T09:19:58.346Z,21.00
2023-02-23T09:22:49.158Z,16.00
2023-02-23T09:25:23.018Z,12.60
2023-02-23T09:28:00.195Z,24.10
2023-02-23T09:30:33.154Z,20.80
2023-02-23T09:33:02.194Z,18.20
2023-02-23T09:35:30.847Z,19.10
2023-02-23T09:38:04.068Z,13.30
2023-02-23T09:40:58.557Z,14.10
2023-02-23T09:43:33.834Z,18.80
2023-02-23T09:46:36.924Z,15.90
2023-02-23T09:49:14.678Z,16.30
2023-02-23T09:51:55.451Z,14.30
2023-02-23T09:54:36.120Z,28.30
2023-02-23T09:57:15.258Z,16.60
2023-02-23T09:59:45.553Z,15.40
2023-02-23T10:03:09.282Z,15.60
2023-02-23T10:05:58.417Z,20.50
2023-02-23T10:08:59.770Z,13.70
2023-02-23T10:11:56.901Z,17.40
2023-02-23T10:15:13.370Z,21.80
2023-02-23T10:17:59.377Z,23.90
2023-02-23T10:20:53.794Z,14.80
2023-02-23T10:23:40.425Z,12.20
2023-02-23T10:26:26.563Z,14.80
2023-02-23T10:29:06.104Z,24.70
2023-02-23T10:31:48.462Z,21.20
2023-02-23T10:34:25.390Z,20.70
2023-02-23T10:37:08.431Z,16.40
2023-02-23T10:39:46.583Z,21.30
2023-02-23T10:42:32.216Z,18.20
2023-02-23T10:45:19.163Z,16.00
2023-02-23T10:47:52.360Z,17.40
2023-02-23T10:50:31.560Z,15.30
2023-02-23T10:53:22.529Z,13.20
2023-02-23T10:58:51.244Z,14.30
2023-02-23T11:02:01.908Z,18.60
2023-02-23T11:04:53.738Z,33.00
2023-02-23T11:07:30.563Z,17.90
2023-02-23T11:10:27.447Z,16.90
2023-02-23T11:13:05.947Z,18.80
2023-02-23T11:15:50.831Z,13.80
2023-02-23T11:18:27.335Z,15.80
2023-02-23T11:21:11.954Z,17.10
2023-02-23T11:23:46.174Z,18.20
2023-02-23T11:29:47.613Z,18.60
2023-02-23T11:32:27.151Z,14.70
2023-02-23T11:35:54.564Z,15.60
2023-02-23T11:38:33.465Z,17.50
2023-02-23T11:41:33.286Z,18.80
2023-02-23T11:44:27.726Z,20.20
2023-02-23T11:47:20.401Z,16.50
2023-02-23T11:50:00.367Z,14.60
2023-02-23T11:52:32.742Z,14.10
2023-02-23T11:55:08.115Z,16.00
2023-02-23T11:57:37.454Z,12.70
2023-02-23T12:00:34.064Z,17.60
2023-02-23T12:03:19.909Z,13.80
2023-02-23T12:06:02.903Z,16.20
2023-02-23T12:08:57.867Z,16.80
2023-02-23T12:11:52.184Z,14.60
2023-02-23T12:14:59.039Z,17.20
2023-02-23T12:17:41.153Z,19.10
2023-02-23T12:20:30.342Z,18.40
2023-02-23T12:23:11.291Z,18.00
2023-02-23T12:25:56.691Z,15.60
2023-02-23T12:28:39.910Z,13.70
2023-02-23T12:32:05.938Z,19.90
2023-02-23T12:34:56.655Z,16.20
2023-02-23T12:38:09.543Z,18.80
2023-02-23T12:40:44.509Z,15.30
2023-02-23T12:43:27.304Z,17.50
2023-02-23T12:46:03.946Z,18.40
2023-02-23T12:49:03.645Z,19.20
2023-02-23T12:52:09.218Z,18.00
2023-02-23T12:54:37.911Z,13.90
2023-02-23T12:57:15.093Z,16.80
2023-02-23T13:00:30.585Z,20.30
2023-02-23T13:03:26.702Z,18.30
2023-02-23T13:06:14.977Z,15.30
2023-02-23T13:08:56.887Z,14.40
2023-02-23T13:12:11.837Z,13.20
2023-02-23T13:14:49.696Z,14.80
2023-02-23T13:17:36.048Z,13.50
2023-02-23T13:20:44.319Z,16.20
2023-02-23T13:23:40.479Z,13.00
2023-02-23T13:26:26.971Z,13.20
2023-02-23T13:29:13.292Z,14.20
2023-02-23T13:31:43.914Z,17.20
2023-02-23T13:34:30.315Z,18.40
2023-02-23T13:37:03.687Z,15.50
2023-02-23T13:40:11.058Z,14.70
2023-02-23T13:43:19.748Z,14.70
2023-02-23T13:46:32.237Z,17.90
2023-02-23T13:49:58.401Z,15.90
2023-02-23T13:52:42.682Z,19.20
2023-02-23T13:55:54.320Z,14.70
2023-02-23T13:58:32.923Z,16.10
2023-02-23T14:01:27.035Z,13.10
2023-02-23T14:04:01.909Z,14.20
2023-02-23T14:06:36.993Z,16.90
2023-02-23T14:09:22.188Z,16.20
2023-02-23T14:12:18.523Z,21.20
2023-02-23T14:14:50.421Z,13.20
2023-02-23T14:17:19.427Z,14.60
2023-02-23T14:20:24.265Z,14.90
2023-02-23T14:23:29.234Z,19.80
2023-02-23T14:26:18.342Z,19.30
2023-02-23T14:29:27.029Z,17.60
2023-02-23T14:32:25.676Z,18.00
2023-02-23T14:35:00.909Z,16.10
2023-02-23T14:37:35.482Z,23.00
2023-02-23T14:40:16.837Z,18.60
2023-02-23T14:43:06.038Z,19.90
2023-02-23T14:45:45.427Z,16.50
2023-02-23T14:48:19.636Z,15.80
2023-02-23T14:50:48.516Z,15.10
2023-02-23T14:53:31.780Z,15.10
2023-02-23T14:56:32.569Z,17.80
2023-02-23T14:59:23.029Z,20.90
2023-02-23T15:01:56.514Z,15.40
2023-02-23T15:04:39.040Z,20.30
2023-02-23T15:07:29.000Z,22.40
2023-02-23T15:10:10.943Z,18.50
2023-02-23T15:12:42.922Z,14.10
2023-02-23T15:15:31.159Z,14.70
2023-02-23T15:18:09.864Z,20.20
2023-02-23T15:20:46.065Z,18.20
2023-02-23T15:23:18.917Z,18.30
2023-02-23T15:26:23.739Z,14.30
2023-02-23T15:28:56.564Z,16.50
2023-02-23T15:31:31.683Z,20.80
2023-02-23T15:34:10.955Z,20.20
2023-02-23T15:36:47.431Z,22.20
2023-02-23T15:39:41.699Z,20.90
2023-02-23T15:42:29.763Z,24.10
2023-02-23T15:45:30.146Z,27.00
2023-02-23T15:48:18.626Z,26.00
2023-02-23T15:50:57.084Z,22.40
2023-02-23T15:54:00.535Z,24.40
2023-02-23T15:56:42.682Z,29.50
2023-02-23T15:59:55.765Z,25.60
2023-02-23T16:02:30.468Z,24.80
2023-02-23T16:05:30.354Z,34.80
2023-02-23T16:08:37.326Z,40.30
2023-02-23T16:11:19.533Z,50.30
2023-02-23T16:14:07.288Z,46.00
2023-02-23T16:16:49.919Z,53.10
2023-02-23T16:19:44.315Z,48.30
2023-02-23T16:22:41.035Z,50.10
2023-02-23T16:25:17.345Z,40.70
2023-02-23T16:27:56.308Z,40.00
2023-02-23T16:30:35.148Z,43.10
2023-02-23T16:33:19.365Z,40.50
2023-02-23T16:36:25.107Z,42.10
2023-02-23T16:39:01.275Z,49.60
2023-02-23T16:41:38.483Z,53.80
2023-02-23T16:44:14.785Z,44.20
2023-02-23T16:47:13.468Z,46.10
2023-02-23T16:49:48.363Z,43.70
2023-02-23T16:52:25.801Z,43.60
2023-02-23T16:54:56.118Z,43.70
2023-02-23T16:57:39.151Z,42.60
2023-02-23T17:00:25.507Z,50.60
2023-02-23T17:03:00.460Z,48.40
2023-02-23T17:05:34.080Z,40.10
2023-02-23T17:08:07.265Z,55.90
2023-02-23T17:10:37.261Z,46.10
2023-02-23T17:13:30.178Z,41.50
2023-02-23T17:16:05.321Z,50.10
2023-02-23T17:18:45.093Z,58.80
2023-02-23T17:21:23.974Z,53.40
2023-02-23T17:24:04.538Z,59.10
2023-02-23T17:26:52.794Z,70.50
2023-02-23T17:29:25.714Z,63.10
2023-02-23T17:32:02.664Z,56.10
2023-02-23T17:34:43.380Z,56.30
2023-02-23T17:37:14.755Z,59.50
2023-02-23T17:39:52.266Z,61.70
2023-02-23T17:42:38.440Z,61.70
2023-02-23T17:45:12.458Z,55.60
2023-02-23T17:47:48.540Z,57.50
2023-02-23T17:50:21.957Z,65.10
2023-02-23T17:53:03.124Z,53.20
2023-02-23T17:55:41.322Z,63.30
2023-02-23T17:58:13.791Z,53.70
2023-02-23T18:00:45.915Z,59.10
2023-02-23T18:03:21.264Z,56.00
2023-02-23T18:05:54.911Z,68.40
2023-02-23T18:08:34.983Z,61.50
2023-02-23T18:11:08.145Z,71.50
2023-02-23T18:13:50.079Z,64.90
2023-02-23T18:16:24.894Z,61.00
2023-02-23T18:19:07.049Z,72.10
2023-02-23T18:21:42.330Z,76.20
2023-02-23T18:24:19.074Z,58.30
2023-02-23T18:26:48.284Z,63.90
2023-02-23T18:29:31.069Z,81.90
2023-02-23T18:32:08.880Z,78.90
2023-02-23T18:34:52.664Z,78.20
2023-02-23T18:37:36.758Z,70.80
2023-02-23T18:40:26.473Z,77.80
2023-02-23T18:43:25.130Z,81.70
2023-02-23T18:45:58.990Z,92.00
2023-02-23T18:48:47.917Z,75.50
2023-02-23T18:51:24.122Z,69.80
2023-02-23T18:53:57.628Z,80.80
2023-02-23T18:56:57.270Z,81.90
2023-02-23T18:59:35.784Z,72.40
2023-02-23T19:02:11.728Z,70.40
2023-02-23T19:04:52.753Z,56.30
2023-02-23T19:07:24.586Z,74.70
2023-02-23T19:10:05.095Z,79.50
2023-02-23T19:12:44.558Z,81.90
2023-02-23T19:15:17.002Z,85.80
2023-02-23T19:17:53.643Z,84.40
2023-02-23T19:23:20.192Z,69.60
2023-02-23T19:26:08.880Z,68.00
2023-02-23T19:28:54.738Z,63.40
2023-02-23T19:35:15.032Z,58.70
2023-02-23T19:38:03.085Z,64.30
2023-02-23T19:40:47.498Z,53.20
2023-02-23T19:43:32.553Z,68.70
2023-02-23T19:46:23.649Z,57.60
2023-02-23T19:49:11.807Z,70.60
2023-02-23T19:52:00.650Z,68.10
2023-02-23T19:55:07.347Z,64.70
2023-02-23T19:57:56.286Z,80.40
2023-02-23T20:00:57.273Z,73.00
2023-02-23T20:03:56.804Z,75.70
2023-02-23T20:07:05.172Z,81.20
2023-02-23T20:10:26.806Z,97.80
2023-02-23T20:13:15.308Z,69.50
2023-02-23T20:16:35.452Z,55.00
2023-02-23T20:19:13.141Z,59.40
2023-02-23T20:21:57.697Z,65.70
2023-02-23T20:24:59.775Z,67.20
2023-02-23T20:27:44.148Z,67.50
2023-02-23T20:30:29.855Z,65.10
2023-02-23T20:33:36.572Z,73.90
2023-02-23T20:36:13.670Z,77.00
2023-02-23T20:38:51.042Z,99.80
2023-02-23T20:41:32.187Z,105.90
2023-02-23T20:44:11.347Z,102.20
2023-02-23T20:46:51.833Z,87.10
2023-02-23T20:49:27.736Z,92.00
2023-02-23T20:52:24.617Z,100.10
2023-02-23T20:55:00.989Z,83.20
2023-02-23T20:57:36.123Z,100.60
2023-02-23T21:00:23.997Z,95.60
2023-02-23T21:03:02.330Z,95.30
2023-02-23T21:05:38.264Z,100.10
2023-02-23T21:08:09.674Z,85.40
2023-02-23T21:10:48.810Z,106.10
2023-02-23T21:13:34.454Z,91.40
2023-02-23T21:16:03.405Z,102.20
2023-02-23T21:18:32.352Z,96.00
2023-02-23T21:21:15.603Z,96.90
2023-02-23T21:23:52.952Z,91.30
2023-02-23T21:26:30.680Z,86.40
2023-02-23T21:29:08.196Z,79.00
2023-02-23T21:31:39.823Z,79.20
2023-02-23T21:34:13.140Z,80.90
2023-02-23T21:36:41.561Z,77.70
2023-02-23T21:39:15.663Z,70.50
2023-02-23T21:41:49.169Z,73.40
2023-02-23T21:44:34.075Z,71.80
2023-02-23T21:47:07.514Z,78.10
2023-02-23T21:49:41.317Z,77.80
2023-02-23T21:52:25.747Z,72.10
2023-02-23T21:55:07.896Z,61.60
2023-02-23T21:57:47.151Z,60.20
2023-02-23T22:00:31.164Z,54.90
2023-02-23T22:03:08.065Z,52.70
2023-02-23T22:05:39.379Z,52.30
2023-02-23T22:08:15.809Z,73.70
2023-02-23T22:10:51.061Z,86.30
2023-02-23T22:13:26.018Z,85.10
2023-02-23T22:16:01.213Z,82.60
2023-02-23T22:18:41.188Z,74.30
2023-02-23T22:21:14.439Z,91.40
2023-02-23T22:23:54.688Z,80.80
2023-02-23T22:26:32.056Z,75.10
2023-02-23T22:29:10.814Z,72.90
2023-02-23T22:31:45.267Z,68.90
2023-02-23T22:34:26.079Z,77.10
2023-02-23T22:37:04.065Z,82.10
2023-02-23T22:39:35.016Z,73.00
2023-02-23T22:42:13.310Z,73.60
2023-02-23T22:44:54.835Z,77.60
2023-02-23T22:47:30.897Z,71.60
2023-02-23T22:50:14.119Z,85.10
2023-02-23T22:52:50.079Z,92.50
2023-02-23T22:55:23.689Z,99.60
2023-02-23T22:57:59.809Z,88.50
2023-02-23T23:00:39.616Z,86.90
2023-02-23T23:03:14.845Z,81.20
2023-02-23T23:05:53.653Z,75.50
2023-02-23T23:08:36.569Z,83.10
2023-02-23T23:11:20.128Z,73.70
2023-02-23T23:14:07.018Z,75.00
2023-02-23T23:16:48.502Z,81.10
2023-02-23T23:19:57.672Z,69.10
2023-02-23T23:25:32.096Z,62.40
2023-02-23T23:28:16.827Z,61.90
2023-02-23T23:31:13.901Z,56.10
2023-02-23T23:34:00.496Z,51.10
2023-02-23T23:36:55.474Z,48.60
2023-02-23T23:39:41.956Z,56.10
2023-02-23T23:42:29.276Z,52.90
2023-02-23T23:45:08.299Z,53.20
2023-02-23T23:48:01.882Z,65.30
2023-02-23T23:50:51.890Z,54.20
2023-02-23T23:53:36.984Z,50.60
2023-02-23T23:56:28.671Z,50.10
2023-02-23T23:59:26.399Z,54.50
